logo
Search for airport 
image banner adimage banner adimage banner ad
image banner ad

FMMG - Antsalova

Located in , Madagascar

ICAO - FMMG, IATA - WAQ

Data provided by Airmate  

General information

Coordinates: S18°42'5" E44°36'53"
Elevation is 551 feet MSL.
 
View others Airports in Mahajanga

Operational data

Special qualification required
Current time UTC:
Current local time:
Weather at : - ( 0 km )
METAR: KTIX 171247Z 00000KT 7SM SKC 29/25 A3010
View NOTAMs / SUP AIP / TFR affecting this airport [VIEW]
Communications frequencies: [VIEW]

Runways:

RWY identifierQFULength (ft)Width (ft)SurfaceLDA (ft)
04301898UNK
22301898UNK

Airport contact information

Address: Madagascar

Satellite view of FMMG